West Eminence, Missouri
Current Conditions -  °F | °C
As of 8:27 AM on Sunday 23 Nov 2014 (Local Time) from KUNO Reporting Station
Light Rain Light Rain  
Wind Chill: 53°   Ceiling: 400
Heat Index: 53°   Visibility: 7mi
Dew Point: 51°   Wind: 10mph
Humidity: 93%   Direction: 140°SE
Pressure: 29.63"   Gusts: 17mph
Location:  37.1833°N, 91.4819°W
Report Text: KUNO 231427Z AUTO 14009G15KT 7SM -RA OVC004 12/11 A2963 RMK AO2 P0002 T01170106
Loading
Personal Weather Stations






























Interactive Weather Map New forecast layout! Learn more

10-Day Weather Forecast

Advertisements
Track Severe Weather on mobile